Time;durP1;ratioP1;P1;durP2;ratioP2;P2;SDS_P1;SDS_P2;PMS_P1;PMS_P2;Temp;Humidity;BMP_temperature;BMP_pressure;BME280_temperature;BME280_humidity;BME280_pressure;Samples;Min_cycle;Max_cycle;Signal;HPM_P1;HPM_P2
2022/07/03 00:01:57;;;;;;;0.40;0.40;;;17.00;99.90;;;;;;5053730;28;20677;-72
2022/07/03 00:04:23;;;;;;;0.30;0.30;;;17.00;99.90;;;;;;5053298;28;20332;-72
2022/07/03 00:06:49;;;;;;;0.63;0.50;;;17.10;99.90;;;;;;5053366;28;20201;-72
2022/07/03 00:09:15;;;;;;;0.40;0.40;;;17.20;99.90;;;;;;5053669;28;20198;-72
2022/07/03 00:11:42;;;;;;;0.30;0.30;;;17.30;99.90;;;;;;5053458;28;20510;-73
2022/07/03 00:14:08;;;;;;;0.20;0.20;;;17.40;99.90;;;;;;5053645;28;20544;-73
2022/07/03 00:16:34;;;;;;;0.22;0.22;;;17.30;99.90;;;;;;5035569;28;20216;-73
2022/07/03 00:18:59;;;;;;;0.55;0.50;;;17.00;99.90;;;;;;5053427;28;20226;-74
2022/07/03 00:21:45;;;;;;;0.30;0.30;;;16.90;99.90;;;;;;5035467;28;20229;-73
2022/07/03 00:24:22;;;;;;;0.20;0.20;;;16.90;99.90;;;;;;5035148;28;20244;-72
2022/07/03 00:26:51;;;;;;;0.35;0.35;;;16.90;99.90;;;;;;5035264;28;20594;-73
2022/07/03 00:29:19;;;;;;;1.60;0.93;;;16.90;99.90;;;;;;5053130;28;20197;-72
2022/07/03 00:31:46;;;;;;;0.30;0.30;;;16.90;99.90;;;;;;5053611;28;20664;-72
2022/07/03 00:34:15;;;;;;;0.30;0.30;;;16.90;99.90;;;;;;5053134;28;20225;-73
2022/07/03 00:36:41;;;;;;;0.30;0.30;;;16.90;99.90;;;;;;5035084;28;20214;-72
2022/07/03 00:39:07;;;;;;;0.30;0.30;;;16.90;99.90;;;;;;5053354;28;20698;-73
2022/07/03 00:41:35;;;;;;;0.52;0.38;;;17.00;99.90;;;;;;5035140;28;20261;-72
2022/07/03 00:44:01;;;;;;;0.40;0.40;;;17.10;99.90;;;;;;5033142;28;20206;-72
2022/07/03 00:46:28;;;;;;;0.20;0.20;;;17.20;99.90;;;;;;5052673;28;20193;-71
2022/07/03 00:48:56;;;;;;;0.30;0.30;;;17.30;99.90;;;;;;5052423;28;20189;-73
2022/07/03 00:51:24;;;;;;;0.30;0.30;;;17.30;99.90;;;;;;5052740;28;20566;-73
2022/07/03 00:53:56;;;;;;;0.47;0.47;;;17.30;99.90;;;;;;5052957;28;20200;-73
2022/07/03 00:56:28;;;;;;;2.28;0.80;;;17.40;99.90;;;;;;5053132;28;20209;-72
2022/07/03 00:58:59;;;;;;;0.30;0.30;;;17.00;99.90;;;;;;5052739;28;20562;-73
2022/07/03 01:01:31;;;;;;;0.40;0.40;;;16.90;99.90;;;;;;5052628;28;20193;-64
2022/07/03 01:04:24;;;;;;;0.35;0.35;;;17.00;99.90;;;;;;5041155;28;20732;-64
2022/07/03 01:07:05;;;;;;;0.30;0.30;;;17.10;99.90;;;;;;5025884;28;20554;-65
2022/07/03 01:10:01;;;;;;;0.50;0.40;;;17.20;99.90;;;;;;5033003;28;20603;-65
2022/07/03 01:12:50;;;;;;;0.30;0.30;;;17.10;99.90;;;;;;5032392;28;20842;-64
2022/07/03 01:15:49;;;;;;;0.30;0.30;;;17.20;99.90;;;;;;5014659;28;20221;-67
2022/07/03 01:18:39;;;;;;;0.32;0.32;;;17.20;99.90;;;;;;5032453;28;20303;-67
2022/07/03 01:21:31;;;;;;;0.32;0.32;;;17.00;99.90;;;;;;5014758;28;20194;-65
2022/07/03 01:24:19;;;;;;;0.85;0.63;;;17.00;99.90;;;;;;5026990;28;20225;-65
2022/07/03 01:26:47;;;;;;;0.47;0.47;;;16.90;99.90;;;;;;5032407;28;20220;-65
2022/07/03 01:29:26;;;;;;;0.30;0.30;;;16.90;99.90;;;;;;5014042;28;20244;-67
2022/07/03 01:31:55;;;;;;;0.47;0.47;;;16.80;99.90;;;;;;5032027;28;20206;-66
2022/07/03 01:34:22;;;;;;;0.28;0.28;;;16.70;99.90;;;;;;5031369;28;20669;-64
2022/07/03 01:36:50;;;;;;;0.38;0.38;;;16.70;99.90;;;;;;5014562;28;20201;-65
2022/07/03 01:39:17;;;;;;;0.38;0.30;;;16.70;99.90;;;;;;5034072;28;20657;-64
2022/07/03 01:41:47;;;;;;;0.30;0.30;;;16.70;99.90;;;;;;5052267;28;20185;-65
2022/07/03 01:44:14;;;;;;;0.32;0.32;;;16.70;99.90;;;;;;5052186;28;20189;-65
2022/07/03 01:46:45;;;;;;;0.30;0.30;;;16.60;99.90;;;;;;5052024;28;20555;-66
2022/07/03 01:49:15;;;;;;;0.30;0.30;;;16.60;99.90;;;;;;5052021;28;20198;-64
2022/07/03 01:51:43;;;;;;;0.50;0.50;;;16.60;99.90;;;;;;5033947;28;20704;-64
2022/07/03 01:54:10;;;;;;;0.40;0.40;;;16.50;99.90;;;;;;5051961;28;20200;-65
2022/07/03 01:56:37;;;;;;;0.30;0.30;;;16.50;99.90;;;;;;5033726;28;20215;-64
2022/07/03 01:59:03;;;;;;;0.70;0.55;;;16.50;99.90;;;;;;5049776;28;20196;-64
2022/07/03 02:01:48;;;;;;;0.40;0.40;;;16.50;99.90;;;;;;5041415;28;20636;-65
2022/07/03 02:04:43;;;;;;;0.40;0.40;;;16.50;99.90;;;;;;5051842;28;20193;-65
2022/07/03 02:07:18;;;;;;;0.55;0.55;;;16.50;99.90;;;;;;5034076;28;20719;-65
2022/07/03 02:09:58;;;;;;;0.57;0.57;;;16.40;99.90;;;;;;5051718;28;20208;-64
2022/07/03 02:12:31;;;;;;;0.22;0.22;;;16.40;99.90;;;;;;5051539;28;20195;-64
2022/07/03 02:15:05;;;;;;;0.40;0.40;;;16.30;99.90;;;;;;5051619;28;20197;-64
2022/07/03 02:17:42;;;;;;;0.52;0.52;;;16.40;99.90;;;;;;5051242;28;20312;-65
2022/07/03 02:20:09;;;;;;;0.50;0.50;;;16.40;99.90;;;;;;5051606;28;20652;-64
2022/07/03 02:22:42;;;;;;;0.30;0.30;;;16.30;99.90;;;;;;5033437;28;20189;-64
2022/07/03 02:25:21;;;;;;;0.30;0.30;;;16.30;99.90;;;;;;5051621;28;20751;-64
2022/07/03 02:28:05;;;;;;;0.63;0.40;;;16.30;99.90;;;;;;5033605;28;20550;-65
2022/07/03 02:30:35;;;;;;;0.55;0.52;;;16.20;99.90;;;;;;5051507;28;20190;-65
2022/07/03 02:33:02;;;;;;;0.60;0.60;;;16.20;99.90;;;;;;5051359;28;20236;-64
2022/07/03 02:35:30;;;;;;;0.40;0.40;;;16.30;99.90;;;;;;5050807;28;20619;-65
2022/07/03 02:38:04;;;;;;;0.30;0.30;;;16.30;99.90;;;;;;5051433;28;20185;-64
2022/07/03 02:40:45;;;;;;;0.45;0.45;;;16.30;99.90;;;;;;5051344;28;20197;-64
2022/07/03 02:43:16;;;;;;;0.30;0.30;;;16.30;99.90;;;;;;5051310;28;20197;-65
2022/07/03 02:46:00;;;;;;;0.45;0.40;;;16.30;99.90;;;;;;5033629;28;20201;-66
2022/07/03 02:48:40;;;;;;;0.40;0.40;;;16.30;99.90;;;;;;5052655;28;20225;-65
2022/07/03 02:51:22;;;;;;;0.65;0.60;;;16.30;99.90;;;;;;5055230;28;20201;-64
2022/07/03 02:54:01;;;;;;;0.40;0.40;;;16.30;99.90;;;;;;5054859;28;20193;-64
2022/07/03 02:57:08;;;;;;;1.65;1.27;;;16.30;99.90;;;;;;5043347;28;20208;-65
2022/07/03 02:59:56;;;;;;;0.30;0.30;;;16.40;99.90;;;;;;5034967;28;20196;-65
2022/07/03 03:02:55;;;;;;;0.30;0.30;;;16.60;99.90;;;;;;5042568;28;20285;-65
2022/07/03 03:05:34;;;;;;;0.35;0.35;;;16.70;99.90;;;;;;5036384;28;20190;-64
2022/07/03 03:08:08;;;;;;;0.25;0.25;;;16.80;99.90;;;;;;5037030;28;20275;-65
2022/07/03 03:10:39;;;;;;;0.70;0.70;;;16.90;99.90;;;;;;5054638;28;20212;-65
2022/07/03 03:13:06;;;;;;;0.40;0.40;;;17.00;99.90;;;;;;5055017;28;20621;-64
2022/07/03 03:15:33;;;;;;;0.40;0.35;;;17.10;99.90;;;;;;5053879;28;20271;-65
2022/07/03 03:18:04;;;;;;;0.30;0.30;;;17.00;99.90;;;;;;5054645;28;20767;-65
2022/07/03 03:20:36;;;;;;;0.35;0.35;;;17.10;99.90;;;;;;5054331;28;20243;-65
2022/07/03 03:23:29;;;;;;;1.05;0.85;;;17.10;99.90;;;;;;5054673;28;20275;-64
2022/07/03 03:25:55;;;;;;;3.03;0.95;;;17.00;99.90;;;;;;5053968;28;20193;-64
2022/07/03 03:28:21;;;;;;;31.88;0.60;;;17.00;99.90;;;;;;5054389;28;20192;-65
2022/07/03 03:30:48;;;;;;;0.38;0.38;;;16.90;99.90;;;;;;5054567;28;20561;-65
2022/07/03 03:33:14;;;;;;;0.55;0.45;;;16.90;99.90;;;;;;5034296;28;20214;-65
2022/07/03 03:35:40;;;;;;;0.47;0.47;;;17.00;99.90;;;;;;5054227;28;20209;-65
2022/07/03 03:38:06;;;;;;;0.35;0.35;;;17.10;99.90;;;;;;5036510;28;20194;-65
2022/07/03 03:40:32;;;;;;;0.57;0.57;;;17.20;99.90;;;;;;5036184;28;20201;-64
2022/07/03 03:42:59;;;;;;;0.70;0.47;;;17.20;99.90;;;;;;5054250;28;20197;-64
2022/07/03 03:45:25;;;;;;;0.55;0.55;;;17.30;99.90;;;;;;5035612;28;20572;-66
2022/07/03 03:47:51;;;;;;;0.75;0.60;;;17.30;99.90;;;;;;5053660;28;20189;-66
2022/07/03 03:50:17;;;;;;;0.45;0.45;;;17.30;99.90;;;;;;5054387;28;20263;-67
2022/07/03 03:52:42;;;;;;;0.30;0.30;;;17.30;99.90;;;;;;5053639;28;20208;-66
2022/07/03 03:55:11;;;;;;;0.30;0.30;;;16.80;99.90;;;;;;5053919;28;20214;-67
2022/07/03 03:57:37;;;;;;;0.50;0.50;;;16.40;99.90;;;;;;5053796;28;20267;-66
2022/07/03 04:00:07;;;;;;;1.02;0.90;;;16.10;99.90;;;;;;5053831;28;20185;-66
2022/07/03 04:02:32;;;;;;;0.50;0.50;;;15.80;99.90;;;;;;5053639;28;20243;-66
2022/07/03 04:04:58;;;;;;;0.30;0.30;;;15.60;99.90;;;;;;5053692;28;20198;-66
2022/07/03 04:07:24;;;;;;;0.40;0.40;;;15.40;99.90;;;;;;5031528;28;20202;-66
2022/07/03 04:09:50;;;;;;;0.52;0.52;;;15.30;99.90;;;;;;5033754;28;20707;-66
2022/07/03 04:12:16;;;;;;;0.38;0.38;;;15.20;99.90;;;;;;5033668;28;20201;-66
2022/07/03 04:14:42;;;;;;;0.32;0.32;;;15.20;99.90;;;;;;5033643;28;20194;-66
2022/07/03 04:17:07;;;;;;;0.55;0.55;;;15.20;99.90;;;;;;5032348;28;20205;-66
2022/07/03 04:19:33;;;;;;;0.68;0.68;;;15.20;99.90;;;;;;5033488;28;20198;-66
2022/07/03 04:21:59;;;;;;;0.30;0.30;;;15.20;99.90;;;;;;5033572;28;20733;-66
2022/07/03 04:24:25;;;;;;;2.85;1.38;;;15.10;99.90;;;;;;5033388;28;20217;-65
2022/07/03 04:26:51;;;;;;;0.50;0.50;;;15.10;99.90;;;;;;5033388;28;20198;-68
2022/07/03 04:29:16;;;;;;;0.45;0.45;;;15.10;99.90;;;;;;5046149;28;20244;-66
2022/07/03 04:31:42;;;;;;;0.50;0.50;;;15.10;99.90;;;;;;5053355;28;20201;-65
2022/07/03 04:34:08;;;;;;;0.57;0.50;;;15.10;99.90;;;;;;5053188;28;20660;-66
2022/07/03 04:36:33;;;;;;;0.30;0.30;;;15.10;99.90;;;;;;5052784;28;20205;-67
2022/07/03 04:38:59;;;;;;;0.90;0.65;;;15.10;99.90;;;;;;5053109;28;20655;-65
2022/07/03 04:41:25;;;;;;;0.70;0.68;;;15.20;99.90;;;;;;5052891;28;20216;-66
2022/07/03 04:43:51;;;;;;;0.40;0.40;;;15.40;99.90;;;;;;5034625;28;20190;-67
2022/07/03 04:46:17;;;;;;;0.90;0.65;;;15.50;99.90;;;;;;5053001;28;20220;-66
2022/07/03 04:48:43;;;;;;;0.40;0.40;;;15.80;99.90;;;;;;5025609;28;20221;-65
2022/07/03 04:51:08;;;;;;;0.30;0.30;;;15.90;99.90;;;;;;5015322;28;20217;-67
2022/07/03 04:53:34;;;;;;;0.50;0.50;;;16.10;99.90;;;;;;5032906;28;20194;-65
2022/07/03 04:56:00;;;;;;;0.30;0.30;;;16.20;99.90;;;;;;5032924;28;20213;-66
2022/07/03 04:58:25;;;;;;;1.65;0.55;;;16.40;99.90;;;;;;5032897;28;20194;-66
2022/07/03 05:00:51;;;;;;;1.55;0.75;;;16.50;99.90;;;;;;5014887;28;20264;-66
2022/07/03 05:03:17;;;;;;;0.40;0.40;;;16.60;99.90;;;;;;5032631;28;20205;-67
2022/07/03 05:05:43;;;;;;;0.30;0.30;;;16.70;99.90;;;;;;5032414;28;20190;-67
2022/07/03 05:08:08;;;;;;;0.63;0.57;;;16.80;99.90;;;;;;5032790;28;20234;-66
2022/07/03 05:10:34;;;;;;;0.30;0.30;;;16.90;99.90;;;;;;5032079;28;20230;-66
2022/07/03 05:13:00;;;;;;;0.30;0.30;;;17.00;99.90;;;;;;5031550;28;20205;-66
2022/07/03 05:15:26;;;;;;;0.60;0.60;;;17.10;99.90;;;;;;5032435;28;20198;-67
2022/07/03 05:17:51;;;;;;;0.73;0.73;;;17.10;99.90;;;;;;5044913;28;20237;-69
2022/07/03 05:20:29;;;;;;;0.68;0.50;;;17.10;99.90;;;;;;5051928;28;20190;-67
2022/07/03 05:22:57;;;;;;;0.35;0.35;;;17.20;99.90;;;;;;5067555;28;20197;-66
2022/07/03 05:25:22;;;;;;;1.05;0.93;;;17.20;99.90;;;;;;5070029;28;20663;-67
2022/07/03 05:27:50;;;;;;;0.30;0.30;;;17.40;99.90;;;;;;5071721;28;20223;-67
2022/07/03 05:30:16;;;;;;;0.20;0.20;;;17.50;99.90;;;;;;5070530;28;20660;-66
2022/07/03 05:32:42;;;;;;;0.30;0.30;;;17.60;99.90;;;;;;5070428;28;20611;-65
2022/07/03 05:35:08;;;;;;;0.20;0.20;;;17.70;99.90;;;;;;5070806;28;20209;-65
2022/07/03 05:37:34;;;;;;;0.30;0.30;;;17.80;99.90;;;;;;5070634;28;20272;-66
2022/07/03 05:40:00;;;;;;;1.95;0.93;;;17.90;99.90;;;;;;5072020;28;20217;-66
2022/07/03 05:42:25;;;;;;;0.30;0.30;;;18.00;99.90;;;;;;5071752;28;20185;-66
2022/07/03 05:44:51;;;;;;;0.30;0.30;;;18.10;99.90;;;;;;5063368;28;20259;-68
2022/07/03 05:47:17;;;;;;;2.17;0.73;;;18.10;99.90;;;;;;5052002;28;20710;-66
2022/07/03 05:49:42;;;;;;;6.40;0.95;;;18.20;99.90;;;;;;5052224;28;20247;-66
2022/07/03 05:52:08;;;;;;;8.77;0.65;;;18.10;99.90;;;;;;5050527;28;20284;-66
2022/07/03 05:54:34;;;;;;;0.20;0.20;;;18.30;99.90;;;;;;5051746;28;20287;-67
2022/07/03 05:57:00;;;;;;;0.30;0.30;;;18.30;99.90;;;;;;5051904;28;20676;-67
2022/07/03 05:59:25;;;;;;;0.30;0.30;;;18.40;99.90;;;;;;5051619;28;20669;-66
2022/07/03 06:01:51;;;;;;;6.85;0.80;;;18.50;99.90;;;;;;5051859;28;20675;-67
2022/07/03 06:04:17;;;;;;;0.30;0.30;;;18.70;99.90;;;;;;5050815;28;20202;-67
2022/07/03 06:06:43;;;;;;;0.25;0.25;;;18.90;99.90;;;;;;5063523;28;20200;-66
2022/07/03 06:09:08;;;;;;;0.40;0.40;;;18.90;99.90;;;;;;5071798;28;20271;-66
2022/07/03 06:11:34;;;;;;;0.68;0.50;;;19.00;99.90;;;;;;5071547;28;20207;-66
2022/07/03 06:14:00;;;;;;;0.30;0.30;;;19.10;99.90;;;;;;5071708;28;20311;-66
2022/07/03 06:16:25;;;;;;;0.20;0.20;;;19.10;99.90;;;;;;5070260;28;20213;-66
2022/07/03 06:18:51;;;;;;;1.95;1.02;;;19.20;99.90;;;;;;5069871;28;20319;-68
2022/07/03 06:21:18;;;;;;;0.30;0.30;;;19.60;99.90;;;;;;5071513;28;20228;-68
2022/07/03 06:23:43;;;;;;;0.73;0.68;;;19.70;99.90;;;;;;5073717;28;20216;-66
2022/07/03 06:26:09;;;;;;;0.65;0.50;;;19.60;99.90;;;;;;5074462;28;20293;-67
2022/07/03 06:28:35;;;;;;;0.40;0.40;;;19.50;99.90;;;;;;5073952;28;20197;-66
2022/07/03 06:31:00;;;;;;;0.68;0.47;;;19.30;99.90;;;;;;5075591;28;20242;-67
2022/07/03 06:33:26;;;;;;;0.30;0.30;;;19.20;99.90;;;;;;5075397;28;20275;-66
2022/07/03 06:35:52;;;;;;;0.20;0.20;;;19.30;99.90;;;;;;5074193;28;20718;-66
2022/07/03 06:38:17;;;;;;;0.43;0.43;;;19.40;99.90;;;;;;5075340;28;20267;-67
2022/07/03 06:40:43;;;;;;;0.40;0.40;;;19.60;99.90;;;;;;5068181;28;20193;-67
2022/07/03 06:43:09;;;;;;;0.50;0.50;;;19.70;99.90;;;;;;5054964;28;20217;-66
2022/07/03 06:45:34;;;;;;;0.68;0.68;;;19.70;99.90;;;;;;5053697;28;20562;-67
2022/07/03 06:48:00;;;;;;;0.20;0.20;;;19.50;99.90;;;;;;5055193;28;20247;-67
2022/07/03 06:50:26;;;;;;;0.50;0.50;;;19.40;99.90;;;;;;5053949;28;20206;-66
2022/07/03 06:52:51;;;;;;;0.68;0.40;;;19.30;99.90;;;;;;5055149;28;20201;-67
2022/07/03 06:55:17;;;;;;;0.22;0.22;;;19.30;99.90;;;;;;5055082;28;20228;-67
2022/07/03 06:57:43;;;;;;;0.30;0.30;;;19.50;99.90;;;;;;5055357;28;20243;-66
2022/07/03 07:00:09;;;;;;;0.30;0.30;;;19.50;99.90;;;;;;5053943;28;20197;-66
2022/07/03 07:02:35;;;;;;;2.60;1.55;;;19.40;99.90;;;;;;5054674;28;20562;-66
2022/07/03 07:05:01;;;;;;;1.20;0.82;;;19.30;99.90;;;;;;5054815;28;20657;-67
2022/07/03 07:07:26;;;;;;;0.30;0.30;;;19.10;99.90;;;;;;5074002;28;20209;-67
2022/07/03 07:09:52;;;;;;;0.40;0.40;;;18.70;99.90;;;;;;5075342;28;20197;-66
2022/07/03 07:12:18;;;;;;;0.30;0.30;;;18.70;99.90;;;;;;5074768;28;20266;-67
2022/07/03 07:14:43;;;;;;;0.43;0.43;;;18.70;99.90;;;;;;5074894;28;20189;-67
2022/07/03 07:17:09;;;;;;;0.40;0.40;;;18.50;99.90;;;;;;5071499;28;20235;-67
2022/07/03 07:19:35;;;;;;;0.50;0.50;;;18.40;99.90;;;;;;5052719;28;20545;-68
2022/07/03 07:22:01;;;;;;;0.68;0.68;;;18.20;99.90;;;;;;5053509;28;20209;-67
2022/07/03 07:24:29;;;;;;;0.22;0.22;;;18.10;99.90;;;;;;5035416;28;20629;-67
2022/07/03 07:26:55;;;;;;;0.63;0.63;;;18.00;99.90;;;;;;5053420;28;20674;-67
2022/07/03 07:29:21;;;;;;;0.30;0.30;;;18.10;99.90;;;;;;5035391;28;20201;-67
2022/07/03 07:31:46;;;;;;;0.52;0.43;;;18.30;99.90;;;;;;5053245;28;20208;-66
2022/07/03 07:34:13;;;;;;;0.30;0.30;;;18.50;99.90;;;;;;5052829;28;20185;-67
2022/07/03 07:36:39;;;;;;;0.50;0.50;;;18.60;99.90;;;;;;5050391;28;21706;-67
2022/07/03 07:39:05;;;;;;;42.72;1.13;;;18.70;99.90;;;;;;5033198;28;20589;-67
2022/07/03 07:41:31;;;;;;;0.30;0.30;;;18.80;99.90;;;;;;5015312;28;20206;-67
2022/07/03 07:43:56;;;;;;;0.30;0.30;;;18.90;99.90;;;;;;5033171;28;20198;-67
2022/07/03 07:46:23;;;;;;;0.55;0.47;;;19.00;99.90;;;;;;5033041;28;20194;-68
2022/07/03 07:48:48;;;;;;;1.70;1.17;;;19.30;99.90;;;;;;5015503;28;20251;-68
2022/07/03 07:51:14;;;;;;;0.25;0.25;;;20.10;99.90;;;;;;5033156;28;20666;-67
2022/07/03 07:53:40;;;;;;;0.30;0.30;;;20.30;99.90;;;;;;5033243;28;20197;-69
2022/07/03 07:56:05;;;;;;;19.48;0.95;;;20.70;99.90;;;;;;5032931;28;20567;-67
2022/07/03 07:58:31;;;;;;;0.80;0.45;;;21.10;99.90;;;;;;5032361;28;20271;-67
2022/07/03 08:06:25;;;;;;;1.65;1.25;;;20.20;99.90;;;;;;5043137;28;20339;-68
2022/07/03 08:08:51;;;;;;;0.20;0.20;;;20.10;99.90;;;;;;5052194;28;20276;-67
2022/07/03 08:11:16;;;;;;;0.95;0.57;;;20.10;99.90;;;;;;5052773;28;20201;-67
2022/07/03 08:13:42;;;;;;;0.30;0.30;;;19.90;99.90;;;;;;5034358;28;20673;-68
2022/07/03 08:16:09;;;;;;;0.47;0.47;;;19.80;99.90;;;;;;5052824;28;20331;-67
2022/07/03 08:18:34;;;;;;;0.55;0.52;;;20.10;99.90;;;;;;5007911;28;1290620;-67
2022/07/03 08:21:00;;;;;;;0.38;0.38;;;20.20;99.90;;;;;;5053552;28;20251;-67
2022/07/03 08:23:26;;;;;;;0.65;0.65;;;19.90;99.90;;;;;;5053575;28;20506;-66
2022/07/03 08:25:51;;;;;;;0.38;0.38;;;19.90;99.90;;;;;;5035734;28;20197;-69
2022/07/03 08:28:17;;;;;;;1.00;0.68;;;20.00;99.90;;;;;;5053089;28;20197;-67
2022/07/03 08:30:44;;;;;;;0.55;0.55;;;20.10;99.90;;;;;;5053679;28;20730;-67
2022/07/03 08:33:09;;;;;;;0.30;0.30;;;20.30;99.90;;;;;;5048563;28;20226;-68
2022/07/03 08:35:35;;;;;;;0.50;0.50;;;20.20;99.90;;;;;;5015370;28;20305;-68
2022/07/03 08:38:00;;;;;;;0.43;0.43;;;20.80;99.90;;;;;;5033380;28;20190;-68
2022/07/03 08:40:26;;;;;;;4.63;0.55;;;21.10;99.90;;;;;;5015293;28;20191;-67
2022/07/03 08:42:57;;;;;;;0.20;0.20;;;21.30;99.90;;;;;;5033226;28;20248;-68
2022/07/03 08:45:24;;;;;;;2.80;0.75;;;21.60;99.90;;;;;;5032410;28;20225;-70
2022/07/03 08:47:54;;;;;;;0.35;0.35;;;21.30;99.90;;;;;;5032448;28;20209;-69
2022/07/03 08:50:20;;;;;;;0.40;0.40;;;20.90;99.90;;;;;;5032931;28;20195;-69
2022/07/03 08:52:47;;;;;;;0.30;0.30;;;20.70;99.90;;;;;;5015513;28;20677;-67
2022/07/03 08:55:14;;;;;;;0.30;0.30;;;20.80;99.90;;;;;;5015296;28;20210;-67
2022/07/03 08:57:41;;;;;;;1.98;0.40;;;20.90;99.90;;;;;;5032940;28;20186;-69
2022/07/03 09:00:10;;;;;;;0.20;0.20;;;20.80;99.90;;;;;;5014978;28;20206;-68
2022/07/03 09:02:36;;;;;;;0.30;0.30;;;20.80;99.90;;;;;;5015000;28;20198;-67
2022/07/03 09:05:02;;;;;;;0.20;0.20;;;20.90;99.90;;;;;;5032754;28;20644;-67
2022/07/03 09:07:31;;;;;;;0.20;0.20;;;20.90;99.90;;;;;;5051609;28;20664;-66
2022/07/03 09:09:57;;;;;;;0.40;0.40;;;20.90;99.90;;;;;;5034129;28;20626;-68
2022/07/03 09:12:23;;;;;;;0.30;0.30;;;21.20;99.90;;;;;;5034596;28;20293;-68
2022/07/03 09:14:49;;;;;;;0.30;0.30;;;21.10;99.90;;;;;;5052517;28;20200;-70
2022/07/03 09:17:15;;;;;;;0.40;0.40;;;20.80;99.90;;;;;;5034430;28;20769;-67
2022/07/03 09:19:47;;;;;;;0.30;0.30;;;20.80;99.90;;;;;;5034658;28;20671;-67
2022/07/03 09:22:21;;;;;;;0.20;0.20;;;20.80;99.90;;;;;;5052351;28;20189;-67
2022/07/03 09:24:54;;;;;;;0.20;0.20;;;20.80;99.90;;;;;;5052496;28;20605;-67
2022/07/03 09:27:21;;;;;;;1.52;0.93;;;20.80;99.90;;;;;;5052039;28;20195;-68
2022/07/03 09:29:59;;;;;;;0.60;0.35;;;20.90;99.90;;;;;;5044380;28;20193;-67
2022/07/03 09:32:25;;;;;;;0.38;0.38;;;21.10;99.90;;;;;;5032263;28;20190;-67
2022/07/03 09:35:11;;;;;;;0.20;0.20;;;21.60;99.90;;;;;;5032321;28;20683;-68
2022/07/03 09:37:37;;;;;;;0.40;0.40;;;21.50;99.90;;;;;;5032204;28;20257;-66
2022/07/03 09:40:03;;;;;;;0.35;0.35;;;21.60;99.90;;;;;;5014488;28;20278;-65
2022/07/03 09:42:29;;;;;;;0.40;0.40;;;21.50;99.90;;;;;;5013914;28;20734;-67
2022/07/03 09:44:55;;;;;;;1.40;0.68;;;21.40;99.90;;;;;;5031792;28;20186;-67
2022/07/03 09:47:23;;;;;;;0.30;0.30;;;21.10;99.90;;;;;;5032151;28;20239;-66
2022/07/03 09:49:55;;;;;;;0.30;0.30;;;21.00;99.90;;;;;;5032074;28;20265;-66
2022/07/03 09:52:38;;;;;;;0.20;0.20;;;21.30;99.90;;;;;;5031840;28;20275;-66
2022/07/03 09:55:10;;;;;;;0.22;0.22;;;21.50;99.90;;;;;;5031945;28;20213;-67
2022/07/03 09:58:06;;;;;;;5.72;0.63;;;21.50;99.90;;;;;;5032022;28;20454;-67
2022/07/03 10:00:34;;;;;;;0.28;0.28;;;21.60;99.90;;;;;;5030502;28;20210;-68
2022/07/03 10:03:06;;;;;;;0.40;0.40;;;21.60;99.90;;;;;;5031995;28;20235;-67
2022/07/03 10:05:36;;;;;;;0.20;0.20;;;21.70;99.90;;;;;;5032989;28;20197;-68
2022/07/03 10:08:15;;;;;;;0.25;0.25;;;21.50;99.90;;;;;;5034005;28;20680;-67
2022/07/03 10:10:44;;;;;;;0.10;0.10;;;21.40;99.90;;;;;;5033800;28;20197;-68
2022/07/03 10:13:10;;;;;;;0.20;0.20;;;21.30;99.90;;;;;;5051602;28;20559;-67
2022/07/03 10:15:38;;;;;;;36.00;0.88;;;21.10;99.90;;;;;;5051424;28;20680;-68
2022/07/03 10:18:12;;;;;;;0.20;0.20;;;20.90;99.90;;;;;;5051528;28;20720;-68
2022/07/03 10:20:48;;;;;;;0.95;0.52;;;20.50;99.90;;;;;;5033270;28;20237;-68
2022/07/03 10:23:21;;;;;;;0.25;0.25;;;20.20;99.90;;;;;;5033856;28;20566;-68
2022/07/03 10:25:48;;;;;;;0.30;0.30;;;20.10;99.90;;;;;;5051551;28;20197;-68
2022/07/03 10:28:15;;;;;;;0.20;0.20;;;19.90;99.90;;;;;;5051628;28;20210;-68
2022/07/03 10:30:44;;;;;;;0.32;0.32;;;19.80;99.90;;;;;;5051410;28;20201;-68
2022/07/03 10:33:09;;;;;;;0.40;0.40;;;19.50;99.90;;;;;;5051489;28;20200;-67
2022/07/03 10:35:42;;;;;;;0.40;0.40;;;19.50;99.90;;;;;;5051357;28;20198;-68
2022/07/03 10:38:33;;;;;;;0.93;0.50;;;19.40;99.90;;;;;;5033504;28;20201;-68
2022/07/03 10:46:48;;;;;;;0.20;0.20;;;19.80;99.90;;;;;;5051312;28;20251;-67
2022/07/03 10:49:14;;;;;;;0.20;0.20;;;19.90;99.90;;;;;;5051286;28;20474;-67
2022/07/03 10:51:59;;;;;;;0.47;0.47;;;19.90;99.90;;;;;;5033210;28;20634;-67
2022/07/03 10:54:48;;;;;;;0.40;0.40;;;19.80;99.90;;;;;;5051153;28;20766;-67
2022/07/03 10:57:17;;;;;;;0.30;0.30;;;19.60;99.90;;;;;;5051230;28;20198;-67
2022/07/03 10:59:47;;;;;;;0.43;0.38;;;19.40;99.90;;;;;;5051195;28;20185;-66
2022/07/03 11:02:28;;;;;;;0.50;0.50;;;19.20;99.90;;;;;;5050505;28;20194;-67
2022/07/03 11:04:59;;;;;;;0.52;0.52;;;18.80;99.90;;;;;;5033264;28;20278;-67
2022/07/03 11:07:26;;;;;;;0.30;0.30;;;18.60;99.90;;;;;;5051104;28;20588;-66
2022/07/03 11:10:14;;;;;;;0.40;0.40;;;18.30;99.90;;;;;;5053383;28;20664;-67
2022/07/03 11:13:02;;;;;;;0.30;0.30;;;18.00;99.90;;;;;;5036705;28;20597;-68
2022/07/03 11:15:29;;;;;;;0.47;0.47;;;17.80;99.90;;;;;;5054273;28;20190;-68
2022/07/03 11:18:31;;;;;;;1.40;0.68;;;17.70;99.90;;;;;;5054784;28;20229;-68
2022/07/03 11:21:15;;;;;;;0.30;0.30;;;17.30;99.90;;;;;;5006999;28;20759;-67
2022/07/03 11:23:48;;;;;;;0.40;0.40;;;17.20;99.90;;;;;;5053247;28;20201;-67
2022/07/03 11:26:13;;;;;;;0.50;0.50;;;17.00;99.90;;;;;;5036443;28;20189;-67
2022/07/03 11:28:39;;;;;;;0.40;0.40;;;16.90;99.90;;;;;;5054397;28;20672;-66
2022/07/03 11:31:08;;;;;;;0.82;0.50;;;16.60;99.90;;;;;;5054403;28;20190;-67
2022/07/03 11:33:46;;;;;;;0.45;0.45;;;16.70;99.90;;;;;;5054331;28;20219;-67
2022/07/03 11:36:33;;;;;;;0.40;0.40;;;16.60;99.90;;;;;;5054247;28;20563;-67
2022/07/03 11:38:59;;;;;;;0.35;0.35;;;16.60;99.90;;;;;;5054303;28;20243;-67
2022/07/03 11:41:41;;;;;;;0.50;0.50;;;16.70;99.90;;;;;;5035956;28;20688;-67
2022/07/03 11:44:09;;;;;;;5.00;0.88;;;16.60;99.90;;;;;;5054191;28;20193;-67
2022/07/03 11:46:37;;;;;;;0.95;0.82;;;16.60;99.90;;;;;;5054022;28;20528;-67
2022/07/03 11:49:07;;;;;;;0.30;0.30;;;16.60;99.90;;;;;;5054104;28;20269;-67
2022/07/03 11:51:33;;;;;;;0.40;0.40;;;16.60;99.90;;;;;;5035958;28;20228;-68
2022/07/03 11:54:00;;;;;;;0.57;0.57;;;16.70;99.90;;;;;;5054122;28;20676;-67
2022/07/03 11:56:27;;;;;;;0.47;0.47;;;16.70;99.90;;;;;;5035859;28;20244;-68
2022/07/03 11:58:56;;;;;;;0.40;0.40;;;16.90;99.90;;;;;;5052049;28;20213;-68
2022/07/03 12:01:24;;;;;;;0.45;0.45;;;17.10;99.90;;;;;;5053805;28;20646;-69
2022/07/03 12:04:12;;;;;;;4.05;0.70;;;17.30;99.90;;;;;;5053980;28;20189;-68
2022/07/03 12:06:38;;;;;;;0.40;0.40;;;17.40;99.90;;;;;;5041148;28;20341;-68
2022/07/03 12:09:17;;;;;;;0.82;0.73;;;17.40;99.90;;;;;;5033985;28;20269;-68
2022/07/03 12:12:11;;;;;;;0.40;0.40;;;17.30;99.90;;;;;;5033876;28;20221;-67
2022/07/03 12:14:37;;;;;;;0.47;0.47;;;17.10;99.90;;;;;;5033367;28;20230;-68
2022/07/03 12:17:05;;;;;;;0.43;0.43;;;17.00;99.90;;;;;;5033631;28;20206;-67
2022/07/03 12:19:31;;;;;;;0.30;0.30;;;17.10;99.90;;;;;;5049288;28;20212;-67
2022/07/03 12:21:56;;;;;;;1.23;0.52;;;17.20;99.90;;;;;;5052428;28;20225;-67
2022/07/03 12:24:22;;;;;;;0.52;0.52;;;17.60;99.90;;;;;;5053335;28;20221;-67
2022/07/03 12:26:48;;;;;;;0.20;0.20;;;17.90;99.90;;;;;;5053581;28;20201;-68
2022/07/03 12:29:16;;;;;;;0.30;0.30;;;18.20;99.90;;;;;;5053453;28;20225;-68
2022/07/03 12:31:46;;;;;;;0.43;0.43;;;18.10;99.90;;;;;;5035270;28;20198;-68
2022/07/03 12:34:13;;;;;;;0.50;0.50;;;18.00;99.90;;;;;;5053501;28;20198;-68
2022/07/03 12:36:40;;;;;;;0.38;0.38;;;17.80;99.90;;;;;;5035045;28;20213;-67
2022/07/03 12:39:06;;;;;;;0.40;0.40;;;17.50;99.90;;;;;;5053074;28;20193;-67
2022/07/03 12:41:33;;;;;;;0.75;0.75;;;17.50;99.90;;;;;;5052691;28;20192;-70
2022/07/03 12:43:59;;;;;;;0.57;0.57;;;17.60;99.90;;;;;;5052845;28;20182;-69
2022/07/03 12:46:31;;;;;;;1.55;0.85;;;18.30;99.90;;;;;;5052631;28;20193;-68
2022/07/03 12:48:58;;;;;;;0.50;0.50;;;19.10;99.90;;;;;;5053123;28;20194;-67
2022/07/03 12:51:44;;;;;;;1.20;0.80;;;19.70;99.90;;;;;;5052779;28;20550;-67
2022/07/03 12:54:31;;;;;;;0.25;0.25;;;20.30;99.90;;;;;;5052611;28;20190;-67
2022/07/03 13:00:17;;;;;;;0.52;0.52;;;20.80;99.90;;;;;;5032992;28;20286;-68
2022/07/03 13:02:48;;;;;;;0.50;0.50;;;21.20;99.90;;;;;;5032788;28;20193;-67
2022/07/03 13:05:25;;;;;;;0.20;0.20;;;21.90;99.90;;;;;;5015013;28;20244;-68
2022/07/03 13:07:55;;;;;;;1.00;0.60;;;22.00;99.90;;;;;;5032931;28;20213;-67
2022/07/03 13:10:22;;;;;;;0.30;0.30;;;21.70;99.90;;;;;;5032967;28;20542;-67
2022/07/03 13:12:51;;;;;;;0.28;0.28;;;21.10;99.90;;;;;;5032463;28;20277;-71
2022/07/03 13:15:19;;;;;;;0.30;0.30;;;20.80;99.90;;;;;;5031823;28;20199;-68